Barnesville, Ohio
Current Conditions -  °F | °C
As of 12:33 AM on Friday 28 Nov 2014 (Local Time) from KHLG Reporting Station
Overcast Overcast  
Wind Chill: 19°   Ceiling: 3400
Heat Index: 28°   Visibility: 10mi
Dew Point: 23°   Wind: 9mph
Humidity: 81%   Direction: 280°W
Pressure: 30.23"   Gusts: 21mph
Location:  39.99°N, 81.18°W
Report Text: KHLG 280533Z AUTO 28008G18KT 10SM SCT013 BKN034 OVC085 M02/M05 A3023 RMK AO2 SNE07 P0000 T10221050
Loading
Personal Weather Stations






























Interactive Weather Map New forecast layout! Learn more

10-Day Weather Forecast

Advertisements
Track Severe Weather on mobile